createdAt,value
2022-07-27T00:02:27.140Z,21.37
2022-07-27T00:07:20.440Z,21.55
2022-07-27T00:12:15.212Z,21.42
2022-07-27T00:17:08.616Z,21.40
2022-07-27T00:22:02.046Z,21.39
2022-07-27T00:26:55.453Z,21.40
2022-07-27T00:31:50.332Z,21.57
2022-07-27T00:36:43.682Z,21.66
2022-07-27T00:41:37.031Z,21.52
2022-07-27T00:46:30.792Z,21.50
2022-07-27T00:51:26.903Z,21.49
2022-07-27T00:56:20.632Z,21.51
2022-07-27T01:01:14.314Z,21.30
2022-07-27T01:06:08.629Z,21.22
2022-07-27T01:11:05.952Z,21.26
2022-07-27T01:16:00.105Z,21.29
2022-07-27T01:20:53.572Z,21.25
2022-07-27T01:25:48.793Z,21.08
2022-07-27T01:30:42.337Z,20.88
2022-07-27T01:35:37.468Z,20.87
2022-07-27T01:40:30.937Z,20.99
2022-07-27T01:45:25.772Z,20.92
2022-07-27T01:50:19.116Z,21.07
2022-07-27T01:55:13.348Z,21.14
2022-07-27T02:00:11.880Z,21.18
2022-07-27T02:05:08.706Z,21.15
2022-07-27T02:10:02.042Z,20.90
2022-07-27T02:14:55.321Z,20.91
2022-07-27T02:19:48.876Z,20.96
2022-07-27T02:24:44.040Z,20.77
2022-07-27T02:29:37.390Z,20.72
2022-07-27T02:34:31.025Z,20.76
2022-07-27T02:39:24.372Z,20.85
2022-07-27T02:44:20.246Z,20.87
2022-07-27T02:49:13.967Z,20.90
2022-07-27T02:54:07.799Z,20.85
2022-07-27T02:59:01.109Z,20.70
2022-07-27T03:03:55.857Z,20.63
2022-07-27T03:08:50.195Z,20.48
2022-07-27T03:13:43.627Z,20.30
2022-07-27T03:18:37.035Z,20.08
2022-07-27T03:23:31.776Z,20.12
2022-07-27T03:28:25.173Z,20.09
2022-07-27T03:33:18.565Z,19.92
2022-07-27T03:38:12.238Z,20.06
2022-07-27T03:43:06.978Z,19.88
2022-07-27T03:48:00.596Z,19.80
2022-07-27T03:52:54.375Z,19.90
2022-07-27T03:57:48.046Z,20.02
2022-07-27T04:02:43.460Z,19.87
2022-07-27T04:07:37.181Z,19.90
2022-07-27T04:12:30.563Z,19.85
2022-07-27T04:17:54.953Z,19.80
2022-07-27T04:22:40.272Z,19.78
2022-07-27T04:27:33.858Z,19.86
2022-07-27T04:32:27.167Z,19.81
2022-07-27T04:37:20.497Z,19.95
2022-07-27T04:42:15.237Z,20.09
2022-07-27T04:47:08.668Z,19.89
2022-07-27T04:52:02.113Z,19.94
2022-07-27T04:56:55.456Z,19.76
2022-07-27T05:01:50.235Z,19.85
2022-07-27T05:06:43.619Z,20.01
2022-07-27T05:11:37.082Z,20.14
2022-07-27T05:16:30.416Z,20.37
2022-07-27T05:21:25.295Z,20.61
2022-07-27T05:26:18.686Z,20.96
2022-07-27T05:31:12.412Z,21.19
2022-07-27T05:36:07.758Z,21.35
2022-07-27T05:41:02.652Z,21.48
2022-07-27T05:45:56.428Z,21.88
2022-07-27T05:50:49.760Z,21.89
2022-07-27T05:55:59.434Z,21.81
2022-07-27T06:00:54.729Z,21.75
2022-07-27T06:05:48.077Z,21.34
2022-07-27T06:10:41.756Z,21.27
2022-07-27T06:15:35.984Z,21.36
2022-07-27T06:20:32.403Z,21.35
2022-07-27T06:25:34.600Z,21.31
2022-07-27T06:30:29.255Z,21.18
2022-07-27T06:35:23.239Z,21.16
2022-07-27T06:40:18.102Z,21.43
2022-07-27T06:45:12.735Z,21.58
2022-07-27T06:50:07.653Z,21.88
2022-07-27T06:55:01.034Z,22.11
2022-07-27T06:59:55.727Z,22.06
2022-07-27T07:04:49.164Z,22.30
2022-07-27T07:09:42.527Z,22.25
2022-07-27T07:14:36.794Z,22.20
2022-07-27T07:19:31.570Z,22.27
2022-07-27T07:24:24.877Z,22.31
2022-07-27T07:29:18.707Z,22.14
2022-07-27T07:34:12.052Z,22.37
2022-07-27T07:39:06.965Z,22.78
2022-07-27T07:44:00.451Z,22.77
2022-07-27T07:48:53.892Z,23.13
2022-07-27T07:53:47.250Z,23.29
2022-07-27T07:58:41.984Z,23.72
2022-07-27T08:03:35.427Z,23.83
2022-07-27T08:08:30.169Z,24.01
2022-07-27T08:13:23.780Z,23.87
2022-07-27T08:18:19.033Z,24.11
2022-07-27T08:23:13.220Z,24.33
2022-07-27T08:28:07.551Z,24.43
2022-07-27T08:33:03.474Z,24.70
2022-07-27T08:37:58.986Z,24.80
2022-07-27T08:42:52.417Z,25.11
2022-07-27T08:47:46.796Z,24.42
2022-07-27T08:52:40.586Z,24.45
2022-07-27T08:57:35.355Z,24.53
2022-07-27T09:02:28.763Z,24.86
2022-07-27T09:07:31.649Z,24.93
2022-07-27T09:12:30.525Z,25.03
2022-07-27T09:17:48.018Z,25.00
2022-07-27T09:22:49.769Z,25.06
2022-07-27T09:27:45.791Z,24.89
2022-07-27T09:32:52.963Z,24.53
2022-07-27T09:37:47.068Z,24.82
2022-07-27T09:43:06.756Z,24.62
2022-07-27T09:48:08.233Z,24.98
2022-07-27T09:53:42.427Z,25.82
2022-07-27T09:58:47.970Z,26.34
2022-07-27T10:03:44.254Z,26.62
2022-07-27T10:08:39.465Z,26.84
2022-07-27T10:13:33.195Z,26.51
2022-07-27T10:18:56.091Z,26.93
2022-07-27T10:23:58.155Z,27.15
2022-07-27T10:28:54.891Z,27.21
2022-07-27T10:33:52.989Z,27.09
2022-07-27T10:38:49.573Z,26.75
2022-07-27T10:43:42.909Z,26.60
2022-07-27T10:48:42.771Z,26.78
2022-07-27T10:58:59.089Z,26.27
2022-07-27T11:03:53.735Z,25.67
2022-07-27T11:09:12.109Z,25.54
2022-07-27T11:14:04.390Z,25.45
2022-07-27T11:19:05.601Z,25.31
2022-07-27T11:24:04.100Z,25.44
2022-07-27T11:29:00.123Z,25.42
2022-07-27T11:33:59.922Z,25.43
2022-07-27T11:38:55.920Z,25.42
2022-07-27T11:43:50.701Z,25.31
2022-07-27T11:49:05.987Z,25.44
2022-07-27T11:54:03.851Z,25.45
2022-07-27T11:59:15.263Z,25.61
2022-07-27T12:04:14.052Z,25.62
2022-07-27T12:09:13.093Z,25.52
2022-07-27T12:14:15.129Z,25.31
2022-07-27T12:19:08.688Z,25.19
2022-07-27T12:24:02.114Z,25.33
2022-07-27T12:29:08.532Z,25.59
2022-07-27T12:34:06.454Z,26.06
2022-07-27T12:39:00.146Z,26.05
2022-07-27T12:44:08.406Z,25.95
2022-07-27T12:49:17.197Z,26.02
2022-07-27T12:54:10.851Z,26.40
2022-07-27T12:59:05.689Z,26.61
2022-07-27T13:03:59.122Z,26.51
2022-07-27T13:08:54.462Z,26.33
2022-07-27T13:13:47.887Z,26.37
2022-07-27T13:18:41.234Z,26.31
2022-07-27T13:23:34.630Z,26.30
2022-07-27T13:28:29.608Z,26.25
2022-07-27T13:33:22.940Z,26.15
2022-07-27T13:38:16.851Z,26.10
2022-07-27T13:43:12.216Z,26.30
2022-07-27T13:48:07.583Z,26.46
2022-07-27T13:53:00.964Z,26.61
2022-07-27T13:57:54.298Z,26.51
2022-07-27T14:02:47.867Z,26.16
2022-07-27T14:07:43.616Z,25.98
2022-07-27T14:12:37.007Z,25.89
2022-07-27T14:17:30.457Z,25.92
2022-07-27T14:22:23.965Z,26.12
2022-07-27T14:27:18.705Z,26.31
2022-07-27T14:32:12.169Z,26.47
2022-07-27T14:37:06.460Z,26.42
2022-07-27T14:42:01.444Z,26.40
2022-07-27T14:46:57.026Z,26.36
2022-07-27T14:51:52.656Z,26.32
2022-07-27T14:56:45.956Z,26.30
2022-07-27T15:01:39.789Z,26.41
2022-07-27T15:06:38.889Z,26.40
2022-07-27T15:11:33.046Z,26.37
2022-07-27T15:16:26.471Z,26.32
2022-07-27T15:21:19.914Z,26.26
2022-07-27T15:26:14.691Z,26.26
2022-07-27T15:31:08.153Z,26.27
2022-07-27T15:36:01.561Z,26.22
2022-07-27T15:40:54.898Z,26.21
2022-07-27T15:45:51.784Z,26.39
2022-07-27T15:50:49.019Z,26.47
2022-07-27T15:55:44.658Z,26.55
2022-07-27T16:00:40.519Z,26.58
2022-07-27T16:05:35.742Z,26.60
2022-07-27T16:10:30.082Z,26.58
2022-07-27T16:15:44.260Z,26.69
2022-07-27T16:20:39.238Z,26.72
2022-07-27T16:26:00.873Z,26.55
2022-07-27T16:30:46.050Z,26.45
2022-07-27T16:35:42.830Z,26.51
2022-07-27T16:40:36.286Z,26.55
2022-07-27T16:45:29.652Z,26.51
2022-07-27T16:50:23.309Z,26.45
2022-07-27T16:55:18.225Z,26.38
2022-07-27T17:00:13.086Z,26.43
2022-07-27T17:05:09.791Z,26.27
2022-07-27T17:10:03.128Z,26.05
2022-07-27T17:14:57.984Z,25.93
2022-07-27T17:19:51.279Z,25.86
2022-07-27T17:24:44.857Z,25.81
2022-07-27T17:29:38.341Z,25.60
2022-07-27T17:34:33.302Z,25.50
2022-07-27T17:39:28.486Z,25.47
2022-07-27T17:44:21.840Z,25.39
2022-07-27T17:49:15.841Z,25.40
2022-07-27T17:54:10.997Z,25.44
2022-07-27T17:59:20.386Z,25.53
2022-07-27T18:04:18.466Z,25.60
2022-07-27T18:09:14.594Z,25.42
2022-07-27T18:14:13.146Z,25.24
2022-07-27T18:26:33.435Z,24.96
2022-07-27T18:31:04.450Z,24.83
2022-07-27T18:36:00.167Z,24.71
2022-07-27T18:40:59.334Z,24.76
2022-07-27T18:46:53.995Z,24.67
2022-07-27T18:52:14.323Z,24.53
2022-07-27T18:57:14.558Z,24.42
2022-07-27T19:02:22.628Z,24.25
2022-07-27T19:07:17.770Z,24.24
2022-07-27T19:12:17.174Z,24.23
2022-07-27T19:17:16.394Z,24.12
2022-07-27T19:22:40.415Z,24.00
2022-07-27T19:28:04.657Z,24.05
2022-07-27T19:33:03.223Z,24.03
2022-07-27T19:38:01.171Z,24.00
2022-07-27T19:43:14.125Z,24.04
2022-07-27T19:55:34.648Z,23.96
2022-07-27T20:00:31.266Z,23.92
2022-07-27T20:05:26.762Z,24.00
2022-07-27T20:10:21.869Z,23.93
2022-07-27T20:27:34.606Z,23.81
2022-07-27T20:32:29.977Z,23.81
2022-07-27T20:37:50.175Z,23.64
2022-07-27T20:42:47.536Z,23.56
2022-07-27T20:47:43.196Z,23.57
2022-07-27T20:52:36.962Z,23.78
2022-07-27T20:57:30.708Z,23.61
2022-07-27T21:02:24.096Z,23.54
2022-07-27T21:07:29.012Z,23.55
2022-07-27T21:12:22.578Z,23.33
2022-07-27T21:17:36.387Z,23.18
2022-07-27T21:22:34.717Z,23.36
2022-07-27T21:27:29.765Z,23.13
2022-07-27T21:32:24.435Z,23.09
2022-07-27T21:37:17.824Z,23.13
2022-07-27T21:42:12.974Z,23.13
2022-07-27T21:47:11.561Z,23.22
2022-07-27T21:52:07.746Z,22.98
2022-07-27T21:57:01.027Z,22.73
2022-07-27T22:01:55.933Z,22.67
2022-07-27T22:06:49.328Z,22.52
2022-07-27T22:11:42.701Z,22.57
2022-07-27T22:16:36.058Z,22.44
2022-07-27T22:21:30.944Z,22.23
2022-07-27T22:26:24.294Z,22.18
2022-07-27T22:31:22.712Z,22.16
2022-07-27T22:36:16.761Z,21.87
2022-07-27T22:41:11.607Z,22.02
2022-07-27T22:46:07.277Z,21.84
2022-07-27T22:51:00.732Z,21.65
2022-07-27T22:55:54.124Z,21.73
2022-07-27T23:00:49.066Z,21.66
2022-07-27T23:05:42.585Z,21.96
2022-07-27T23:10:48.276Z,22.19
2022-07-27T23:15:42.549Z,22.13
2022-07-27T23:20:37.847Z,22.03
2022-07-27T23:25:36.396Z,22.18
2022-07-27T23:30:30.023Z,21.63
2022-07-27T23:35:23.766Z,21.71
2022-07-27T23:40:18.592Z,21.72
2022-07-27T23:45:12.664Z,21.62
2022-07-27T23:50:07.134Z,21.49
2022-07-27T23:55:01.075Z,21.44
2022-07-27T23:59:55.830Z,21.35
